»·PEaware :: N733AR KMYF-KNYL

N733AR :: KMYF-KNYL

FLIGHT INFORMATION

Flight Status: Arrived
Operator: Privately registered:
United States
More flights under this callsign
Pilot: Alex R. (33356)
Aircraft: Diamond DA-62
(DA62)
More flights by this aircraft type
Origin: KMYF Montgomery
United States
Destination: KNYL Yuma MCAS/Yuma Intl
United States
More flights between these airports :: More routes between these airports
Route: MZB V66 BZA
File this flight plan on PilotEdge
Remarks:
Altitude:
(Current/Filed)
9,000ft
Speed:
(Current/Filed)
150kts
Departed: 30-Mar-21 07:22 PM
Arrived: 30-Mar-21 08:15 PM
Distance/Time
Traveled:
128nm/0:53
Distance/Time
To Go:
Arrived

Flight Plot

Page will automatically refresh every two minutes.


Map Options




Map Legend


Flown Route
Filed Route
Departure Airport
Arrival Airport
Navaid (VOR, NDB)
Fix

Horizontal Profiles

Position Reports

Time Latitude Longitude Heading Altitude Ground
Speed
30-Mar-21 19:01 32.813679 -117.140177 26 422ft 0kts
30-Mar-21 19:02 32.813679 -117.140177 26 422ft 0kts
30-Mar-21 19:03 32.813679 -117.140177 26 422ft 0kts
30-Mar-21 19:04 32.813679 -117.140177 26 422ft 0kts
30-Mar-21 19:05 32.813679 -117.140177 26 422ft 0kts
30-Mar-21 19:06 32.813679 -117.140177 26 422ft 0kts
30-Mar-21 19:07 32.813679 -117.140177 26 422ft 0kts
30-Mar-21 19:08 32.813679 -117.140177 26 422ft 0kts
30-Mar-21 19:09 32.813679 -117.140177 26 422ft 0kts
30-Mar-21 19:10 32.813679 -117.140177 26 422ft 0kts
30-Mar-21 19:11 32.813679 -117.140177 26 422ft 0kts
30-Mar-21 19:12 32.813679 -117.140177 26 422ft 0kts
30-Mar-21 19:13 32.813679 -117.140177 26 422ft 0kts
30-Mar-21 19:14 32.813679 -117.140177 26 422ft 0kts
30-Mar-21 19:15 32.813679 -117.140177 26 422ft 0kts
30-Mar-21 19:16 32.813679 -117.140177 26 422ft 0kts
30-Mar-21 19:17 32.813679 -117.140177 26 422ft 0kts
30-Mar-21 19:18 32.813165 -117.137765 115 420ft 22kts
30-Mar-21 19:19 32.811502 -117.132091 57 425ft 13kts
30-Mar-21 19:20 32.812041 -117.131476 23 425ft 0kts
30-Mar-21 19:20 32.812041 -117.131476 23 425ft 0kts
30-Mar-21 19:22 32.814181 -117.134577 296 420ft 68kts
30-Mar-21 19:23 32.824194 -117.166472 283 1550ft 100kts
30-Mar-21 19:24 32.831158 -117.200473 282 2996ft 122kts
30-Mar-21 19:24 32.836755 -117.230400 282 4492ft 107kts
30-Mar-21 19:26 32.849638 -117.222094 126 6299ft 130kts
30-Mar-21 19:26 32.830053 -117.193673 132 7567ft 135kts
30-Mar-21 19:28 32.799894 -117.151130 132 8904ft 172kts
30-Mar-21 19:28 32.771914 -117.111966 132 8979ft 180kts
30-Mar-21 19:29 32.770199 -117.069072 54 8992ft 129kts
30-Mar-21 19:30 32.788828 -117.030393 58 9006ft 145kts
30-Mar-21 19:31 32.792093 -116.977914 91 8978ft 176kts
30-Mar-21 19:32 32.790393 -116.918555 89 8979ft 183kts
30-Mar-21 19:33 32.793674 -116.858261 78 8973ft 182kts
30-Mar-21 19:34 32.798523 -116.797690 85 8991ft 191kts
30-Mar-21 19:35 32.800966 -116.733996 85 8981ft 193kts
30-Mar-21 19:36 32.803415 -116.670733 84 8968ft 189kts
30-Mar-21 19:37 32.804899 -116.608218 104 8928ft 192kts
30-Mar-21 19:38 32.779281 -116.552561 110 8930ft 193kts
30-Mar-21 19:40 32.770598 -116.479588 88 8975ft 191kts
30-Mar-21 19:40 32.769620 -116.427088 89 8971ft 192kts
30-Mar-21 19:41 32.768401 -116.363809 89 8970ft 191kts
30-Mar-21 19:42 32.767172 -116.301118 89 8967ft 190kts
30-Mar-21 19:43 32.765896 -116.238468 89 8961ft 189kts
30-Mar-21 19:44 32.764599 -116.175578 89 8955ft 191kts
30-Mar-21 19:45 32.763283 -116.112896 89 8947ft 189kts
30-Mar-21 19:46 32.761913 -116.050194 89 8947ft 190kts
30-Mar-21 19:47 32.760536 -115.987906 90 8946ft 190kts
30-Mar-21 19:48 32.759121 -115.925691 90 9004ft 190kts
30-Mar-21 19:49 32.757671 -115.862853 90 9006ft 191kts
30-Mar-21 19:50 32.756177 -115.799763 90 9005ft 190kts
30-Mar-21 19:51 32.754653 -115.736882 90 9006ft 190kts
30-Mar-21 19:52 32.753096 -115.673657 90 9006ft 191kts
30-Mar-21 19:53 32.751501 -115.610678 90 9006ft 191kts
30-Mar-21 19:54 32.749884 -115.547546 90 8997ft 191kts
30-Mar-21 19:55 32.749461 -115.484685 86 8997ft 190kts
30-Mar-21 19:56 32.750990 -115.421829 86 8997ft 190kts
30-Mar-21 19:57 32.752489 -115.359118 86 8996ft 190kts
30-Mar-21 19:58 32.753965 -115.296222 87 8997ft 190kts
30-Mar-21 19:59 32.755407 -115.233221 87 8998ft 191kts
30-Mar-21 20:00 32.756823 -115.170059 87 8996ft 191kts
30-Mar-21 20:01 32.758200 -115.107068 87 8997ft 190kts
30-Mar-21 20:02 32.759551 -115.043903 87 8792ft 194kts
30-Mar-21 20:03 32.743695 -114.984432 111 7785ft 185kts
30-Mar-21 20:04 32.724039 -114.928538 111 6785ft 181kts
30-Mar-21 20:05 32.703942 -114.874175 111 5785ft 178kts
30-Mar-21 20:06 32.683152 -114.820806 111 4780ft 177kts
30-Mar-21 20:07 32.662143 -114.768985 111 4061ft 165kts
30-Mar-21 20:08 32.641078 -114.718094 113 3235ft 170kts
30-Mar-21 20:09 32.618660 -114.672007 117 2159ft 139kts
30-Mar-21 20:10 32.612371 -114.632993 87 1333ft 110kts
30-Mar-21 20:11 32.618874 -114.604425 9 879ft 90kts
30-Mar-21 20:12 32.640573 -114.603746 0 371ft 71kts
30-Mar-21 20:13 32.659234 -114.603917 359 192ft 48kts
30-Mar-21 20:14 32.664637 -114.604640 188 198ft 0kts
30-Mar-21 20:15 32.664532 -114.605517 264 196ft 0kts
30-Mar-21 20:16 32.664532 -114.605517 264 196ft 0kts
30-Mar-21 20:17 32.664532 -114.605517 264 196ft 0kts
30-Mar-21 20:18 32.659815 -114.606277 231 195ft 22kts
30-Mar-21 20:19 32.659847 -114.610489 286 196ft 11kts
30-Mar-21 20:20 32.660088 -114.610686 5 196ft 0kts
30-Mar-21 20:21 32.660088 -114.610686 5 196ft 0kts
30-Mar-21 20:22 32.660088 -114.610686 5 196ft 0kts
30-Mar-21 20:23 32.660088 -114.610686 5 196ft 0kts

Navigation Log

Ident Type
Flight plan parsing failed, navigation log unavailable